createdAt,value
2018-02-13T00:01:12.874Z,84.10
2018-02-13T00:03:40.479Z,84.10
2018-02-13T00:06:08.857Z,83.80
2018-02-13T00:08:36.456Z,83.70
2018-02-13T00:11:04.037Z,83.80
2018-02-13T00:13:31.622Z,83.80
2018-02-13T00:15:59.217Z,83.90
2018-02-13T00:18:27.556Z,83.40
2018-02-13T00:20:55.162Z,83.40
2018-02-13T00:23:23.518Z,83.30
2018-02-13T00:25:52.453Z,83.30
2018-02-13T00:28:20.796Z,83.40
2018-02-13T00:30:48.404Z,83.40
2018-02-13T00:33:16.740Z,83.20
2018-02-13T00:35:45.678Z,83.20
2018-02-13T00:38:14.043Z,83.20
2018-02-13T00:40:42.383Z,83.20
2018-02-13T00:43:11.534Z,83.20
2018-02-13T00:45:40.935Z,83.40
2018-02-13T00:48:08.513Z,83.40
2018-02-13T00:50:36.855Z,83.20
2018-02-13T00:53:04.461Z,83.50
2018-02-13T00:55:34.537Z,82.80
2018-02-13T00:58:02.943Z,82.80
2018-02-13T01:00:31.900Z,82.50
2018-02-13T01:02:59.479Z,82.40
2018-02-13T01:05:27.039Z,82.40
2018-02-13T01:07:54.620Z,82.50
2018-02-13T01:10:22.692Z,82.40
2018-02-13T01:12:50.336Z,82.30
2018-02-13T01:15:17.936Z,82.50
2018-02-13T01:17:45.538Z,82.30
2018-02-13T01:20:13.145Z,83.00
2018-02-13T01:22:40.739Z,82.50
2018-02-13T01:25:08.337Z,82.70
2018-02-13T01:27:35.935Z,82.90
2018-02-13T01:30:03.528Z,82.90
2018-02-13T01:32:31.085Z,83.10
2018-02-13T01:34:58.774Z,83.20
2018-02-13T01:37:26.365Z,83.20
2018-02-13T01:39:53.947Z,83.30
2018-02-13T01:42:21.547Z,83.20
2018-02-13T01:44:49.127Z,83.10
2018-02-13T01:47:18.114Z,83.40
2018-02-13T01:49:46.482Z,83.50
2018-02-13T01:52:15.380Z,83.50
2018-02-13T01:54:42.950Z,83.80
2018-02-13T01:57:10.530Z,84.00
2018-02-13T01:59:38.120Z,83.90
2018-02-13T02:02:06.460Z,83.60
2018-02-13T02:04:34.041Z,83.60
2018-02-13T02:07:01.659Z,84.00
2018-02-13T02:09:29.244Z,84.10
2018-02-13T02:11:57.938Z,84.10
2018-02-13T02:14:25.523Z,84.10
2018-02-13T02:16:53.095Z,84.00
2018-02-13T02:19:20.683Z,84.20
2018-02-13T02:21:48.263Z,84.40
2018-02-13T02:24:15.910Z,84.50
2018-02-13T02:26:44.349Z,85.00
2018-02-13T02:29:11.923Z,85.00
2018-02-13T02:31:39.516Z,85.20
2018-02-13T02:34:07.092Z,85.00
2018-02-13T02:36:34.676Z,85.00
2018-02-13T02:39:03.356Z,85.00
2018-02-13T02:41:30.916Z,85.10
2018-02-13T02:43:59.276Z,84.90
2018-02-13T02:46:26.851Z,84.90
2018-02-13T02:48:55.264Z,84.80
2018-02-13T02:51:22.844Z,84.80
2018-02-13T02:53:51.100Z,85.00
2018-02-13T02:56:18.705Z,85.00
2018-02-13T02:58:48.105Z,85.00
2018-02-13T03:01:15.661Z,85.00
2018-02-13T03:03:43.245Z,85.10
2018-02-13T03:06:11.165Z,85.30
2018-02-13T03:08:38.731Z,85.50
2018-02-13T03:11:06.323Z,85.30
2018-02-13T03:13:33.882Z,85.30
2018-02-13T03:16:02.200Z,85.50
2018-02-13T03:18:29.774Z,85.60
2018-02-13T03:20:57.348Z,85.60
2018-02-13T03:23:24.942Z,85.50
2018-02-13T03:25:52.520Z,85.60
2018-02-13T03:28:20.114Z,85.70
2018-02-13T03:30:48.453Z,85.80
2018-02-13T03:33:16.497Z,85.80
2018-02-13T03:35:44.077Z,85.90
2018-02-13T03:38:13.783Z,85.80
2018-02-13T03:40:42.127Z,86.10
2018-02-13T03:43:09.773Z,86.10
2018-02-13T03:45:37.347Z,86.10
2018-02-13T03:48:04.933Z,86.10
2018-02-13T03:50:32.547Z,86.50
2018-02-13T03:53:00.131Z,86.40
2018-02-13T03:55:27.743Z,86.40
2018-02-13T03:57:55.409Z,86.60
2018-02-13T04:00:22.980Z,86.60
2018-02-13T04:02:50.543Z,86.50
2018-02-13T04:05:18.123Z,86.70
2018-02-13T04:07:46.441Z,86.70
2018-02-13T04:10:14.008Z,86.70
2018-02-13T04:12:41.608Z,86.80
2018-02-13T04:15:09.187Z,86.70
2018-02-13T04:17:36.770Z,86.80
2018-02-13T04:20:05.104Z,86.90
2018-02-13T04:22:33.163Z,86.90
2018-02-13T04:25:00.762Z,87.00
2018-02-13T04:27:28.368Z,86.90
2018-02-13T04:29:57.735Z,87.20
2018-02-13T04:32:25.319Z,87.10
2018-02-13T04:34:53.671Z,87.10
2018-02-13T04:37:21.235Z,87.10
2018-02-13T04:39:48.839Z,87.10
2018-02-13T04:42:17.188Z,87.20
2018-02-13T04:44:44.743Z,87.10
2018-02-13T04:47:12.311Z,87.10
2018-02-13T04:49:39.880Z,87.10
2018-02-13T04:52:07.468Z,87.20
2018-02-13T04:54:35.040Z,87.00
2018-02-13T04:57:02.612Z,87.10
2018-02-13T04:59:30.206Z,87.10
2018-02-13T05:01:58.552Z,87.20
2018-02-13T05:04:26.896Z,87.80
2018-02-13T05:06:54.500Z,87.10
2018-02-13T05:09:22.834Z,87.90
2018-02-13T05:11:50.423Z,87.20
2018-02-13T05:14:18.025Z,87.20
2018-02-13T05:16:45.599Z,87.10
2018-02-13T05:19:13.159Z,87.10
2018-02-13T05:21:40.763Z,87.10
2018-02-13T05:24:08.330Z,87.20
2018-02-13T05:26:35.919Z,87.20
2018-02-13T05:29:03.537Z,87.10
2018-02-13T05:31:31.126Z,87.10
2018-02-13T05:33:58.728Z,87.00
2018-02-13T05:36:26.328Z,87.20
2018-02-13T05:38:53.920Z,87.40
2018-02-13T05:41:21.480Z,87.10
2018-02-13T05:43:49.060Z,87.10
2018-02-13T05:46:17.259Z,87.10
2018-02-13T05:48:44.822Z,87.10
2018-02-13T05:51:12.388Z,87.00
2018-02-13T05:53:39.955Z,87.00
2018-02-13T05:56:07.572Z,87.00
2018-02-13T05:58:35.181Z,87.00
2018-02-13T06:01:02.778Z,87.00
2018-02-13T06:03:31.701Z,86.90
2018-02-13T06:06:00.163Z,87.10
2018-02-13T06:08:27.730Z,87.20
2018-02-13T06:10:55.309Z,87.20
2018-02-13T06:13:24.376Z,87.10
2018-02-13T06:15:52.741Z,87.10
2018-02-13T06:18:20.362Z,87.10
2018-02-13T06:20:50.203Z,87.30
2018-02-13T06:23:17.792Z,87.30
2018-02-13T06:25:45.356Z,87.20
2018-02-13T06:28:12.945Z,87.20
2018-02-13T06:30:41.277Z,87.00
2018-02-13T06:33:08.875Z,87.70
2018-02-13T06:35:36.495Z,87.10
2018-02-13T06:38:04.073Z,87.00
2018-02-13T06:40:31.713Z,86.70
2018-02-13T06:42:59.313Z,86.70
2018-02-13T06:45:26.877Z,86.70
2018-02-13T06:47:54.467Z,86.80
2018-02-13T06:50:22.862Z,87.40
2018-02-13T06:52:51.189Z,86.70
2018-02-13T06:55:18.760Z,86.60
2018-02-13T06:57:46.350Z,86.40
2018-02-13T07:00:13.924Z,86.60
2018-02-13T07:02:42.280Z,86.70
2018-02-13T07:05:09.884Z,86.70
2018-02-13T07:07:38.214Z,86.80
2018-02-13T07:10:05.778Z,86.70
2018-02-13T07:12:33.352Z,86.70
2018-02-13T07:15:00.936Z,86.60
2018-02-13T07:17:28.500Z,86.70
2018-02-13T07:19:56.093Z,86.70
2018-02-13T07:22:24.431Z,86.70
2018-02-13T07:24:51.997Z,86.70
2018-02-13T07:27:19.607Z,86.50
2018-02-13T07:29:47.948Z,86.50
2018-02-13T07:32:15.667Z,86.10
2018-02-13T07:34:44.003Z,86.30
2018-02-13T07:37:11.616Z,86.20
2018-02-13T07:39:39.784Z,86.30
2018-02-13T07:42:08.129Z,86.20
2018-02-13T07:44:36.582Z,86.20
2018-02-13T07:47:04.176Z,86.20
2018-02-13T07:49:31.758Z,85.70
2018-02-13T07:51:59.378Z,85.40
2018-02-13T07:54:27.204Z,84.80
2018-02-13T07:56:55.549Z,84.70
2018-02-13T07:59:23.189Z,84.00
2018-02-13T08:01:50.753Z,82.70
2018-02-13T08:04:18.321Z,82.30
2018-02-13T08:06:45.975Z,82.20
2018-02-13T08:09:13.535Z,82.40
2018-02-13T08:11:41.868Z,82.50
2018-02-13T08:14:09.439Z,82.50
2018-02-13T08:16:37.115Z,82.50
2018-02-13T08:19:04.720Z,82.80
2018-02-13T08:21:32.310Z,82.70
2018-02-13T08:23:59.866Z,82.40
2018-02-13T08:26:27.456Z,82.40
2018-02-13T08:28:55.086Z,82.60
2018-02-13T08:31:23.600Z,82.80
2018-02-13T08:33:51.160Z,82.70
2018-02-13T08:36:18.712Z,82.20
2018-02-13T08:38:46.274Z,82.30
2018-02-13T08:41:13.864Z,82.50
2018-02-13T08:43:41.440Z,82.40
2018-02-13T08:46:09.007Z,81.90
2018-02-13T08:48:36.577Z,82.00
2018-02-13T08:51:04.158Z,81.90
2018-02-13T08:53:32.512Z,81.70
2018-02-13T08:56:00.077Z,81.60
2018-02-13T08:58:27.651Z,81.60
2018-02-13T09:00:55.218Z,81.50
2018-02-13T09:03:22.894Z,80.90
2018-02-13T09:05:51.640Z,80.60
2018-02-13T09:08:19.214Z,80.50
2018-02-13T09:10:46.794Z,80.10
2018-02-13T09:13:14.353Z,80.10
2018-02-13T09:15:41.968Z,80.20
2018-02-13T09:18:10.821Z,80.00
2018-02-13T09:20:38.934Z,79.90
2018-02-13T09:23:07.285Z,79.40
2018-02-13T09:25:37.681Z,79.40
2018-02-13T09:28:05.260Z,78.40
2018-02-13T09:30:32.833Z,79.20
2018-02-13T09:33:00.412Z,79.00
2018-02-13T09:35:27.999Z,78.60
2018-02-13T09:37:56.373Z,77.30
2018-02-13T09:40:24.724Z,77.40
2018-02-13T09:42:52.342Z,77.30
2018-02-13T09:45:20.666Z,77.10
2018-02-13T09:47:48.307Z,77.00
2018-02-13T09:50:15.894Z,77.10
2018-02-13T09:52:43.480Z,76.50
2018-02-13T09:55:11.064Z,76.50
2018-02-13T09:57:38.617Z,76.30
2018-02-13T10:00:06.216Z,76.40
2018-02-13T10:02:34.540Z,75.60
2018-02-13T10:05:02.878Z,75.60
2018-02-13T10:07:31.258Z,75.50
2018-02-13T10:09:59.591Z,74.10
2018-02-13T10:12:27.166Z,74.10
2018-02-13T10:14:55.313Z,74.10
2018-02-13T10:17:22.895Z,73.20
2018-02-13T10:19:50.471Z,74.00
2018-02-13T10:22:18.064Z,74.00
2018-02-13T10:24:46.382Z,73.00
2018-02-13T10:27:13.956Z,73.00
2018-02-13T10:29:41.550Z,72.50
2018-02-13T10:32:09.129Z,71.70
2018-02-13T10:34:38.560Z,70.80
2018-02-13T10:37:06.902Z,70.10
2018-02-13T10:39:34.486Z,70.00
2018-02-13T10:42:02.837Z,69.00
2018-02-13T10:44:31.833Z,68.90
2018-02-13T10:46:59.432Z,67.60
2018-02-13T10:49:27.046Z,67.50
2018-02-13T10:51:54.643Z,66.60
2018-02-13T10:54:22.302Z,67.30
2018-02-13T10:56:49.897Z,66.60
2018-02-13T10:59:18.341Z,67.50
2018-02-13T11:01:45.915Z,66.60
2018-02-13T11:04:13.507Z,65.60
2018-02-13T11:06:41.107Z,66.10
2018-02-13T11:09:08.708Z,65.80
2018-02-13T11:11:36.293Z,65.20
2018-02-13T11:14:03.920Z,65.50
2018-02-13T11:16:31.522Z,64.20
2018-02-13T11:18:59.154Z,64.20
2018-02-13T11:21:28.352Z,64.70
2018-02-13T11:23:55.987Z,63.80
2018-02-13T11:26:24.346Z,62.20
2018-02-13T11:28:52.002Z,62.90
2018-02-13T11:31:20.402Z,61.30
2018-02-13T11:33:48.019Z,61.10
2018-02-13T11:36:15.599Z,61.50
2018-02-13T11:38:43.177Z,61.00
2018-02-13T11:41:12.306Z,61.10
2018-02-13T11:43:40.653Z,59.90
2018-02-13T11:46:08.229Z,59.90
2018-02-13T11:48:36.427Z,60.30
2018-02-13T11:51:04.775Z,58.50
2018-02-13T11:53:32.542Z,58.50
2018-02-13T11:56:00.155Z,58.30
2018-02-13T11:58:28.174Z,58.30
2018-02-13T12:00:55.768Z,58.20
2018-02-13T12:03:23.365Z,58.60
2018-02-13T12:05:51.696Z,57.40
2018-02-13T12:08:20.606Z,57.40
2018-02-13T12:10:48.233Z,57.00
2018-02-13T12:13:15.911Z,56.90
2018-02-13T12:15:43.495Z,57.10
2018-02-13T12:18:11.097Z,55.50
2018-02-13T12:20:39.456Z,55.10
2018-02-13T12:23:07.919Z,55.10
2018-02-13T12:25:42.409Z,55.10
2018-02-13T12:28:10.785Z,54.30
2018-02-13T12:30:38.347Z,54.50
2018-02-13T12:33:06.089Z,53.90
2018-02-13T12:35:35.448Z,53.70
2018-02-13T12:38:03.955Z,52.60
2018-02-13T12:40:31.594Z,52.60
2018-02-13T12:42:59.161Z,53.20
2018-02-13T12:45:26.748Z,52.40
2018-02-13T12:47:55.288Z,52.40
2018-02-13T12:50:22.896Z,52.50
2018-02-13T12:52:51.240Z,52.20
2018-02-13T12:55:18.854Z,52.10
2018-02-13T12:57:46.446Z,52.30
2018-02-13T13:00:14.836Z,51.80
2018-02-13T13:02:43.221Z,51.60
2018-02-13T13:05:10.867Z,51.50
2018-02-13T13:07:38.483Z,51.30
2018-02-13T13:10:06.124Z,51.40
2018-02-13T13:12:33.791Z,51.70
2018-02-13T13:15:01.476Z,52.10
2018-02-13T13:17:29.109Z,50.00
2018-02-13T13:19:56.681Z,50.90
2018-02-13T13:22:25.014Z,51.80
2018-02-13T13:24:52.624Z,51.60
2018-02-13T13:27:20.269Z,50.80
2018-02-13T13:29:47.868Z,51.10
2018-02-13T13:32:15.826Z,50.60
2018-02-13T13:34:43.417Z,49.70
2018-02-13T13:37:10.992Z,50.30
2018-02-13T13:39:39.494Z,50.50
2018-02-13T13:42:07.126Z,51.70
2018-02-13T13:44:34.716Z,51.30
2018-02-13T13:47:02.334Z,51.40
2018-02-13T13:49:30.395Z,51.70
2018-02-13T13:51:58.830Z,51.50
2018-02-13T13:54:26.823Z,51.90
2018-02-13T13:56:54.480Z,51.00
2018-02-13T13:59:22.065Z,51.80
2018-02-13T14:01:49.709Z,52.10
2018-02-13T14:04:17.318Z,52.40
2018-02-13T14:06:44.908Z,52.90
2018-02-13T14:09:13.330Z,53.90
2018-02-13T14:11:40.972Z,53.90
2018-02-13T14:14:09.611Z,54.10
2018-02-13T14:16:37.762Z,53.90
2018-02-13T14:19:06.205Z,53.30
2018-02-13T14:21:34.631Z,53.10
2018-02-13T14:24:02.222Z,52.90
2018-02-13T14:26:29.829Z,52.60
2018-02-13T14:28:58.233Z,53.30
2018-02-13T14:31:25.821Z,53.30
2018-02-13T14:33:53.434Z,53.90
2018-02-13T14:36:21.791Z,53.80
2018-02-13T14:38:49.350Z,53.80
2018-02-13T14:41:19.999Z,52.70
2018-02-13T14:43:47.631Z,53.10
2018-02-13T14:46:15.255Z,53.60
2018-02-13T14:48:43.579Z,51.70
2018-02-13T14:51:11.201Z,51.60
2018-02-13T14:53:39.532Z,51.10
2018-02-13T14:56:07.110Z,51.00
2018-02-13T14:58:36.178Z,50.90
2018-02-13T15:01:03.801Z,50.60
2018-02-13T15:03:32.238Z,50.40
2018-02-13T15:05:59.848Z,50.20
2018-02-13T15:08:27.442Z,49.80
2018-02-13T15:10:55.051Z,50.10
2018-02-13T15:13:22.695Z,49.90
2018-02-13T15:15:51.984Z,50.00
2018-02-13T15:18:21.395Z,48.90
2018-02-13T15:20:48.979Z,47.90
2018-02-13T15:23:16.765Z,48.70
2018-02-13T15:25:44.345Z,47.50
2018-02-13T15:28:11.964Z,48.20
2018-02-13T15:30:39.560Z,49.00
2018-02-13T15:33:07.178Z,48.30
2018-02-13T15:35:34.757Z,47.70
2018-02-13T15:38:02.579Z,48.30
2018-02-13T15:40:30.165Z,48.00
2018-02-13T15:42:58.534Z,47.90
2018-02-13T15:45:26.226Z,47.90
2018-02-13T15:47:55.180Z,47.90
2018-02-13T15:50:22.736Z,48.70
2018-02-13T15:52:50.322Z,49.20
2018-02-13T15:55:17.922Z,49.80
2018-02-13T15:57:46.425Z,49.60
2018-02-13T16:00:14.740Z,50.00
2018-02-13T16:02:42.705Z,50.30
2018-02-13T16:05:10.365Z,51.50
2018-02-13T16:07:37.939Z,51.20
2018-02-13T16:10:05.507Z,51.90
2018-02-13T16:12:33.153Z,52.00
2018-02-13T16:15:00.829Z,52.50
2018-02-13T16:17:28.406Z,52.50
2018-02-13T16:19:56.014Z,52.80
2018-02-13T16:22:24.362Z,54.30
2018-02-13T16:24:51.945Z,54.30
2018-02-13T16:27:19.628Z,54.80
2018-02-13T16:29:47.954Z,55.60
2018-02-13T16:32:16.534Z,55.50
2018-02-13T16:34:44.124Z,56.80
2018-02-13T16:37:12.332Z,56.60
2018-02-13T16:39:39.896Z,57.30
2018-02-13T16:42:08.283Z,58.00
2018-02-13T16:44:36.719Z,58.00
2018-02-13T16:47:04.294Z,58.00
2018-02-13T16:49:31.880Z,58.40
2018-02-13T16:51:59.469Z,58.50
2018-02-13T16:54:27.799Z,59.50
2018-02-13T16:56:55.419Z,59.50
2018-02-13T16:59:24.679Z,60.30
2018-02-13T17:01:52.631Z,60.20
2018-02-13T17:04:20.264Z,60.40
2018-02-13T17:06:48.616Z,60.20
2018-02-13T17:09:16.182Z,60.20
2018-02-13T17:11:43.782Z,60.40
2018-02-13T17:14:11.368Z,60.80
2018-02-13T17:16:38.946Z,60.70
2018-02-13T17:19:06.532Z,60.70
2018-02-13T17:21:35.035Z,60.80
2018-02-13T17:24:02.622Z,61.20
2018-02-13T17:26:30.245Z,62.30
2018-02-13T17:28:57.857Z,61.70
2018-02-13T17:31:25.467Z,61.80
2018-02-13T17:33:53.109Z,62.40
2018-02-13T17:36:20.703Z,62.10
2018-02-13T17:38:48.303Z,62.20
2018-02-13T17:41:15.903Z,62.40
2018-02-13T17:43:43.531Z,63.20
2018-02-13T17:46:11.162Z,63.90
2018-02-13T17:48:38.765Z,63.90
2018-02-13T17:51:07.240Z,63.80
2018-02-13T17:53:35.330Z,63.80
2018-02-13T17:56:02.964Z,64.10
2018-02-13T17:58:31.355Z,63.30
2018-02-13T18:00:58.951Z,63.20
2018-02-13T18:03:26.578Z,63.30
2018-02-13T18:05:56.661Z,63.40
2018-02-13T18:08:24.256Z,64.30
2018-02-13T18:10:51.888Z,63.80
2018-02-13T18:13:19.485Z,64.60
2018-02-13T18:15:47.949Z,64.20
2018-02-13T18:18:15.533Z,64.20
2018-02-13T18:20:44.024Z,63.90
2018-02-13T18:23:11.609Z,64.10
2018-02-13T18:25:39.182Z,64.00
2018-02-13T18:28:07.595Z,63.30
2018-02-13T18:30:35.416Z,63.20
2018-02-13T18:33:03.078Z,63.30
2018-02-13T18:35:30.737Z,63.10
2018-02-13T18:37:58.554Z,63.30
2018-02-13T18:40:26.924Z,63.40
2018-02-13T18:42:57.030Z,63.30
2018-02-13T18:45:24.718Z,63.20
2018-02-13T18:47:53.178Z,64.00
2018-02-13T18:50:22.038Z,63.90
2018-02-13T18:55:17.700Z,65.00
2018-02-13T18:57:45.373Z,65.30
2018-02-13T19:00:13.117Z,65.60
2018-02-13T19:02:40.776Z,66.00
2018-02-13T19:05:08.373Z,66.00
2018-02-13T19:07:36.042Z,66.20
2018-02-13T19:10:03.732Z,66.00
2018-02-13T19:12:32.114Z,66.20
2018-02-13T19:15:00.131Z,66.20
2018-02-13T19:17:27.780Z,66.60
2018-02-13T19:19:55.404Z,66.50
2018-02-13T19:22:23.008Z,66.20
2018-02-13T19:24:50.996Z,66.20
2018-02-13T19:27:18.846Z,66.20
2018-02-13T19:29:46.716Z,66.40
2018-02-13T19:32:14.580Z,66.30
2018-02-13T19:34:43.266Z,66.40
2018-02-13T19:37:11.848Z,66.70
2018-02-13T19:39:39.465Z,66.60
2018-02-13T19:42:07.131Z,66.50
2018-02-13T19:44:34.710Z,66.80
2018-02-13T19:47:02.303Z,66.30
2018-02-13T19:49:30.285Z,66.40
2018-02-13T19:51:58.770Z,66.60
2018-02-13T19:54:26.499Z,66.50
2018-02-13T19:56:55.505Z,66.90
2018-02-13T19:59:23.244Z,66.60
2018-02-13T20:01:50.826Z,66.50
2018-02-13T20:04:18.545Z,66.70
2018-02-13T20:06:48.704Z,66.90
2018-02-13T20:09:16.445Z,66.90
2018-02-13T20:11:45.076Z,66.80
2018-02-13T20:14:12.984Z,66.80
2018-02-13T20:16:40.669Z,66.60
2018-02-13T20:19:09.836Z,67.20
2018-02-13T20:21:37.577Z,67.10
2018-02-13T20:24:06.137Z,67.60
2018-02-13T20:26:34.661Z,67.40
2018-02-13T20:29:02.363Z,67.30
2018-02-13T20:31:30.993Z,67.10
2018-02-13T20:33:59.566Z,67.40
2018-02-13T20:36:27.483Z,67.60
2018-02-13T20:38:55.237Z,67.90
2018-02-13T20:41:24.609Z,67.90
2018-02-13T20:43:53.036Z,68.10
2018-02-13T20:46:20.677Z,68.00
2018-02-13T20:48:48.302Z,68.70
2018-02-13T20:51:17.430Z,68.20
2018-02-13T20:53:45.038Z,67.90
2018-02-13T20:56:12.778Z,67.80
2018-02-13T20:58:40.399Z,67.90
2018-02-13T21:01:09.992Z,67.60
2018-02-13T21:03:37.627Z,67.60
2018-02-13T21:06:06.079Z,67.50
2018-02-13T21:08:33.667Z,67.00
2018-02-13T21:11:01.283Z,67.10
2018-02-13T21:13:28.852Z,66.30
2018-02-13T21:15:56.453Z,66.40
2018-02-13T21:18:24.540Z,66.50
2018-02-13T21:20:52.123Z,66.10
2018-02-13T21:23:19.719Z,66.30
2018-02-13T21:25:47.282Z,66.80
2018-02-13T21:28:14.912Z,66.70
2018-02-13T21:30:42.599Z,67.10
2018-02-13T21:33:10.194Z,66.70
2018-02-13T21:35:37.790Z,66.90
2018-02-13T21:38:05.364Z,67.10
2018-02-13T21:40:33.027Z,67.60
2018-02-13T21:43:00.602Z,67.40
2018-02-13T21:45:28.505Z,67.70
2018-02-13T21:47:56.996Z,67.90
2018-02-13T21:50:24.587Z,67.90
2018-02-13T21:52:52.177Z,67.70
2018-02-13T21:55:19.797Z,68.10
2018-02-13T21:57:47.393Z,68.20
2018-02-13T22:00:15.731Z,68.20
2018-02-13T22:02:43.446Z,68.20
2018-02-13T22:05:11.815Z,68.20
2018-02-13T22:07:39.458Z,68.20
2018-02-13T22:10:07.054Z,68.20
2018-02-13T22:12:34.642Z,68.70
2018-02-13T22:15:02.238Z,68.60
2018-02-13T22:17:29.874Z,68.10
2018-02-13T22:19:57.468Z,68.50
2018-02-13T22:22:25.608Z,68.40
2018-02-13T22:24:53.202Z,68.40
2018-02-13T22:27:21.492Z,68.50
2018-02-13T22:29:49.059Z,68.20
2018-02-13T22:32:16.663Z,68.50
2018-02-13T22:34:44.282Z,68.30
2018-02-13T22:37:11.871Z,68.30
2018-02-13T22:39:39.471Z,68.50
2018-02-13T22:42:07.810Z,68.40
2018-02-13T22:44:35.375Z,68.30
2018-02-13T22:47:03.026Z,68.30
2018-02-13T22:49:30.589Z,68.40
2018-02-13T22:51:58.172Z,68.40
2018-02-13T22:54:25.772Z,68.50
2018-02-13T22:56:54.167Z,68.40
2018-02-13T22:59:22.530Z,68.40
2018-02-13T23:01:51.549Z,68.40
2018-02-13T23:04:19.872Z,69.00
2018-02-13T23:06:47.448Z,69.00
2018-02-13T23:09:15.017Z,69.10
2018-02-13T23:11:45.433Z,68.80
2018-02-13T23:14:13.065Z,68.60
2018-02-13T23:16:41.666Z,68.80
2018-02-13T23:19:09.247Z,68.80
2018-02-13T23:21:36.831Z,69.70
2018-02-13T23:24:04.425Z,69.00
2018-02-13T23:26:36.248Z,69.30
2018-02-13T23:29:04.631Z,69.00
2018-02-13T23:31:32.206Z,68.90
2018-02-13T23:33:59.781Z,69.10
2018-02-13T23:36:27.417Z,69.10
2018-02-13T23:38:57.000Z,69.40
2018-02-13T23:41:24.581Z,69.20
2018-02-13T23:43:52.170Z,69.10
2018-02-13T23:46:20.750Z,69.30
2018-02-13T23:48:48.726Z,69.10
2018-02-13T23:51:17.554Z,69.10
2018-02-13T23:53:45.160Z,69.00
2018-02-13T23:56:12.790Z,69.10
2018-02-13T23:58:41.127Z,69.50
